sensor_id;sensor_type;location;lat;lon;timestamp;P1;durP1;ratioP1;P2;durP2;ratioP2
20173;SDS011;10246;50.620;7.232;2024-03-08T00:01:31;0.20;;;0.20;;
20173;SDS011;10246;50.620;7.232;2024-03-08T00:03:57;0.20;;;0.20;;
20173;SDS011;10246;50.620;7.232;2024-03-08T00:06:24;0.20;;;0.20;;
20173;SDS011;10246;50.620;7.232;2024-03-08T00:08:52;0.20;;;0.20;;
20173;SDS011;10246;50.620;7.232;2024-03-08T00:11:19;0.20;;;0.20;;
20173;SDS011;10246;50.620;7.232;2024-03-08T00:13:46;0.20;;;0.20;;
20173;SDS011;10246;50.620;7.232;2024-03-08T00:16:13;0.10;;;0.10;;
20173;SDS011;10246;50.620;7.232;2024-03-08T00:18:39;0.20;;;0.20;;
20173;SDS011;10246;50.620;7.232;2024-03-08T00:21:06;0.20;;;0.20;;
20173;SDS011;10246;50.620;7.232;2024-03-08T00:23:35;0.20;;;0.20;;
20173;SDS011;10246;50.620;7.232;2024-03-08T00:26:03;0.20;;;0.20;;
20173;SDS011;10246;50.620;7.232;2024-03-08T00:28:31;0.20;;;0.20;;
20173;SDS011;10246;50.620;7.232;2024-03-08T00:30:59;0.20;;;0.20;;
20173;SDS011;10246;50.620;7.232;2024-03-08T00:33:25;0.20;;;0.20;;
20173;SDS011;10246;50.620;7.232;2024-03-08T00:35:52;0.20;;;0.20;;
20173;SDS011;10246;50.620;7.232;2024-03-08T00:38:19;0.20;;;0.20;;
20173;SDS011;10246;50.620;7.232;2024-03-08T00:40:46;0.20;;;0.20;;
20173;SDS011;10246;50.620;7.232;2024-03-08T00:43:14;0.20;;;0.20;;
20173;SDS011;10246;50.620;7.232;2024-03-08T00:45:41;0.20;;;0.20;;
20173;SDS011;10246;50.620;7.232;2024-03-08T00:48:08;0.20;;;0.20;;
20173;SDS011;10246;50.620;7.232;2024-03-08T00:50:35;0.20;;;0.20;;
20173;SDS011;10246;50.620;7.232;2024-03-08T00:53:02;0.20;;;0.20;;
20173;SDS011;10246;50.620;7.232;2024-03-08T00:55:29;0.20;;;0.20;;
20173;SDS011;10246;50.620;7.232;2024-03-08T00:57:56;0.20;;;0.20;;
20173;SDS011;10246;50.620;7.232;2024-03-08T01:00:24;0.20;;;0.20;;
20173;SDS011;10246;50.620;7.232;2024-03-08T01:02:51;0.20;;;0.20;;
20173;SDS011;10246;50.620;7.232;2024-03-08T01:05:18;0.20;;;0.20;;
20173;SDS011;10246;50.620;7.232;2024-03-08T01:07:45;0.20;;;0.20;;
20173;SDS011;10246;50.620;7.232;2024-03-08T01:10:12;0.20;;;0.20;;
20173;SDS011;10246;50.620;7.232;2024-03-08T01:12:38;0.20;;;0.20;;
20173;SDS011;10246;50.620;7.232;2024-03-08T01:15:05;0.20;;;0.20;;
20173;SDS011;10246;50.620;7.232;2024-03-08T01:17:34;0.20;;;0.20;;
20173;SDS011;10246;50.620;7.232;2024-03-08T01:20:01;0.20;;;0.20;;
20173;SDS011;10246;50.620;7.232;2024-03-08T01:22:28;0.20;;;0.20;;
20173;SDS011;10246;50.620;7.232;2024-03-08T01:24:55;0.20;;;0.20;;
20173;SDS011;10246;50.620;7.232;2024-03-08T01:27:22;0.20;;;0.20;;
20173;SDS011;10246;50.620;7.232;2024-03-08T01:29:50;0.20;;;0.20;;
20173;SDS011;10246;50.620;7.232;2024-03-08T01:32:17;0.20;;;0.20;;
20173;SDS011;10246;50.620;7.232;2024-03-08T01:34:45;0.20;;;0.20;;
20173;SDS011;10246;50.620;7.232;2024-03-08T01:37:12;0.20;;;0.20;;
20173;SDS011;10246;50.620;7.232;2024-03-08T01:39:39;0.20;;;0.20;;
20173;SDS011;10246;50.620;7.232;2024-03-08T01:42:06;0.20;;;0.20;;
20173;SDS011;10246;50.620;7.232;2024-03-08T01:44:33;0.20;;;0.20;;
20173;SDS011;10246;50.620;7.232;2024-03-08T01:47:00;0.20;;;0.20;;
20173;SDS011;10246;50.620;7.232;2024-03-08T01:49:27;0.20;;;0.20;;
20173;SDS011;10246;50.620;7.232;2024-03-08T01:51:55;0.20;;;0.20;;
20173;SDS011;10246;50.620;7.232;2024-03-08T01:54:22;0.20;;;0.20;;
20173;SDS011;10246;50.620;7.232;2024-03-08T01:56:49;0.20;;;0.20;;
20173;SDS011;10246;50.620;7.232;2024-03-08T01:59:18;0.20;;;0.20;;
20173;SDS011;10246;50.620;7.232;2024-03-08T02:01:45;0.20;;;0.20;;
20173;SDS011;10246;50.620;7.232;2024-03-08T02:04:12;0.20;;;0.20;;
20173;SDS011;10246;50.620;7.232;2024-03-08T02:06:39;0.20;;;0.20;;
20173;SDS011;10246;50.620;7.232;2024-03-08T02:09:07;0.30;;;0.30;;
20173;SDS011;10246;50.620;7.232;2024-03-08T02:11:35;0.20;;;0.20;;
20173;SDS011;10246;50.620;7.232;2024-03-08T02:14:02;0.20;;;0.20;;
20173;SDS011;10246;50.620;7.232;2024-03-08T02:16:31;0.20;;;0.20;;
20173;SDS011;10246;50.620;7.232;2024-03-08T02:18:58;0.20;;;0.20;;
20173;SDS011;10246;50.620;7.232;2024-03-08T02:21:26;0.20;;;0.20;;
20173;SDS011;10246;50.620;7.232;2024-03-08T02:23:53;0.20;;;0.20;;
20173;SDS011;10246;50.620;7.232;2024-03-08T02:26:20;0.20;;;0.20;;
20173;SDS011;10246;50.620;7.232;2024-03-08T02:28:47;0.20;;;0.20;;
20173;SDS011;10246;50.620;7.232;2024-03-08T02:31:14;0.20;;;0.20;;
20173;SDS011;10246;50.620;7.232;2024-03-08T02:33:41;0.20;;;0.20;;
20173;SDS011;10246;50.620;7.232;2024-03-08T02:36:08;0.20;;;0.20;;
20173;SDS011;10246;50.620;7.232;2024-03-08T02:38:36;0.20;;;0.20;;
20173;SDS011;10246;50.620;7.232;2024-03-08T02:41:03;0.30;;;0.30;;
20173;SDS011;10246;50.620;7.232;2024-03-08T02:43:30;0.20;;;0.20;;
20173;SDS011;10246;50.620;7.232;2024-03-08T02:45:57;0.20;;;0.20;;
20173;SDS011;10246;50.620;7.232;2024-03-08T02:48:24;0.20;;;0.20;;
20173;SDS011;10246;50.620;7.232;2024-03-08T02:50:51;0.30;;;0.30;;
20173;SDS011;10246;50.620;7.232;2024-03-08T02:53:18;0.20;;;0.20;;
20173;SDS011;10246;50.620;7.232;2024-03-08T02:55:46;0.20;;;0.20;;
20173;SDS011;10246;50.620;7.232;2024-03-08T02:58:13;0.20;;;0.20;;
20173;SDS011;10246;50.620;7.232;2024-03-08T03:00:40;0.20;;;0.20;;
20173;SDS011;10246;50.620;7.232;2024-03-08T03:03:09;0.30;;;0.30;;
20173;SDS011;10246;50.620;7.232;2024-03-08T03:05:36;0.23;;;0.23;;
20173;SDS011;10246;50.620;7.232;2024-03-08T03:08:03;0.20;;;0.20;;
20173;SDS011;10246;50.620;7.232;2024-03-08T03:10:33;0.20;;;0.20;;
20173;SDS011;10246;50.620;7.232;2024-03-08T03:13:02;0.30;;;0.30;;
20173;SDS011;10246;50.620;7.232;2024-03-08T03:15:29;0.13;;;0.13;;
20173;SDS011;10246;50.620;7.232;2024-03-08T03:17:56;0.30;;;0.30;;
20173;SDS011;10246;50.620;7.232;2024-03-08T03:20:23;0.20;;;0.20;;
20173;SDS011;10246;50.620;7.232;2024-03-08T03:22:51;0.20;;;0.20;;
20173;SDS011;10246;50.620;7.232;2024-03-08T03:25:18;0.30;;;0.30;;
20173;SDS011;10246;50.620;7.232;2024-03-08T03:27:51;0.20;;;0.20;;
20173;SDS011;10246;50.620;7.232;2024-03-08T03:30:22;0.30;;;0.30;;
20173;SDS011;10246;50.620;7.232;2024-03-08T03:32:51;0.20;;;0.20;;
20173;SDS011;10246;50.620;7.232;2024-03-08T03:35:19;0.20;;;0.20;;
20173;SDS011;10246;50.620;7.232;2024-03-08T03:37:47;0.20;;;0.20;;
20173;SDS011;10246;50.620;7.232;2024-03-08T03:40:26;0.20;;;0.20;;
20173;SDS011;10246;50.620;7.232;2024-03-08T03:42:53;0.20;;;0.20;;
20173;SDS011;10246;50.620;7.232;2024-03-08T03:45:20;0.20;;;0.20;;
20173;SDS011;10246;50.620;7.232;2024-03-08T03:47:48;0.30;;;0.30;;
20173;SDS011;10246;50.620;7.232;2024-03-08T03:50:15;0.30;;;0.30;;
20173;SDS011;10246;50.620;7.232;2024-03-08T03:52:41;0.20;;;0.20;;
20173;SDS011;10246;50.620;7.232;2024-03-08T03:55:08;0.30;;;0.30;;
20173;SDS011;10246;50.620;7.232;2024-03-08T03:57:37;0.20;;;0.20;;
20173;SDS011;10246;50.620;7.232;2024-03-08T04:00:04;0.20;;;0.20;;
20173;SDS011;10246;50.620;7.232;2024-03-08T04:02:35;0.20;;;0.20;;
20173;SDS011;10246;50.620;7.232;2024-03-08T04:05:03;0.20;;;0.20;;
20173;SDS011;10246;50.620;7.232;2024-03-08T04:07:31;0.20;;;0.20;;
20173;SDS011;10246;50.620;7.232;2024-03-08T04:09:57;0.20;;;0.20;;
20173;SDS011;10246;50.620;7.232;2024-03-08T04:12:24;0.30;;;0.30;;
20173;SDS011;10246;50.620;7.232;2024-03-08T04:14:51;0.20;;;0.20;;
20173;SDS011;10246;50.620;7.232;2024-03-08T04:17:18;0.20;;;0.20;;
20173;SDS011;10246;50.620;7.232;2024-03-08T04:19:45;0.20;;;0.20;;
20173;SDS011;10246;50.620;7.232;2024-03-08T04:22:14;0.20;;;0.20;;
20173;SDS011;10246;50.620;7.232;2024-03-08T04:24:42;0.30;;;0.30;;
20173;SDS011;10246;50.620;7.232;2024-03-08T04:27:09;0.20;;;0.20;;
20173;SDS011;10246;50.620;7.232;2024-03-08T04:29:36;0.20;;;0.20;;
20173;SDS011;10246;50.620;7.232;2024-03-08T04:32:03;0.30;;;0.30;;
20173;SDS011;10246;50.620;7.232;2024-03-08T04:34:31;0.20;;;0.20;;
20173;SDS011;10246;50.620;7.232;2024-03-08T04:36:58;0.20;;;0.20;;
20173;SDS011;10246;50.620;7.232;2024-03-08T04:39:26;0.20;;;0.20;;
20173;SDS011;10246;50.620;7.232;2024-03-08T04:41:54;0.20;;;0.20;;
20173;SDS011;10246;50.620;7.232;2024-03-08T04:44:22;0.20;;;0.20;;
20173;SDS011;10246;50.620;7.232;2024-03-08T04:46:49;0.30;;;0.30;;
20173;SDS011;10246;50.620;7.232;2024-03-08T04:49:16;0.30;;;0.30;;
20173;SDS011;10246;50.620;7.232;2024-03-08T04:51:43;0.20;;;0.20;;
20173;SDS011;10246;50.620;7.232;2024-03-08T04:54:11;0.20;;;0.20;;
20173;SDS011;10246;50.620;7.232;2024-03-08T04:56:39;0.20;;;0.20;;
20173;SDS011;10246;50.620;7.232;2024-03-08T04:59:06;0.30;;;0.30;;
20173;SDS011;10246;50.620;7.232;2024-03-08T05:01:33;0.30;;;0.30;;
20173;SDS011;10246;50.620;7.232;2024-03-08T05:04:02;0.27;;;0.27;;
20173;SDS011;10246;50.620;7.232;2024-03-08T05:06:30;0.20;;;0.20;;
20173;SDS011;10246;50.620;7.232;2024-03-08T05:08:58;0.20;;;0.20;;
20173;SDS011;10246;50.620;7.232;2024-03-08T05:11:24;0.20;;;0.20;;
20173;SDS011;10246;50.620;7.232;2024-03-08T05:13:53;0.20;;;0.20;;
20173;SDS011;10246;50.620;7.232;2024-03-08T05:16:20;0.20;;;0.20;;
20173;SDS011;10246;50.620;7.232;2024-03-08T05:18:49;0.30;;;0.30;;
20173;SDS011;10246;50.620;7.232;2024-03-08T05:21:16;0.20;;;0.20;;
20173;SDS011;10246;50.620;7.232;2024-03-08T05:23:45;0.20;;;0.20;;
20173;SDS011;10246;50.620;7.232;2024-03-08T05:26:12;0.30;;;0.30;;
20173;SDS011;10246;50.620;7.232;2024-03-08T05:28:39;0.30;;;0.30;;
20173;SDS011;10246;50.620;7.232;2024-03-08T05:31:07;0.30;;;0.30;;
20173;SDS011;10246;50.620;7.232;2024-03-08T05:33:33;0.30;;;0.30;;
20173;SDS011;10246;50.620;7.232;2024-03-08T05:36:00;0.20;;;0.20;;
20173;SDS011;10246;50.620;7.232;2024-03-08T05:38:27;0.30;;;0.30;;
20173;SDS011;10246;50.620;7.232;2024-03-08T05:40:54;0.20;;;0.20;;
20173;SDS011;10246;50.620;7.232;2024-03-08T05:43:21;0.30;;;0.30;;
20173;SDS011;10246;50.620;7.232;2024-03-08T05:45:47;0.30;;;0.30;;
20173;SDS011;10246;50.620;7.232;2024-03-08T05:48:15;0.20;;;0.20;;
20173;SDS011;10246;50.620;7.232;2024-03-08T05:50:43;0.20;;;0.20;;
20173;SDS011;10246;50.620;7.232;2024-03-08T05:53:10;0.30;;;0.30;;
20173;SDS011;10246;50.620;7.232;2024-03-08T05:55:37;0.30;;;0.30;;
20173;SDS011;10246;50.620;7.232;2024-03-08T05:58:04;0.37;;;0.37;;
20173;SDS011;10246;50.620;7.232;2024-03-08T06:00:32;0.30;;;0.30;;
20173;SDS011;10246;50.620;7.232;2024-03-08T06:03:01;0.20;;;0.20;;
20173;SDS011;10246;50.620;7.232;2024-03-08T06:05:30;0.30;;;0.30;;
20173;SDS011;10246;50.620;7.232;2024-03-08T06:07:56;0.20;;;0.20;;
20173;SDS011;10246;50.620;7.232;2024-03-08T06:10:23;0.30;;;0.30;;
20173;SDS011;10246;50.620;7.232;2024-03-08T06:12:50;0.30;;;0.30;;
20173;SDS011;10246;50.620;7.232;2024-03-08T06:15:16;0.30;;;0.30;;
20173;SDS011;10246;50.620;7.232;2024-03-08T06:17:46;0.30;;;0.30;;
20173;SDS011;10246;50.620;7.232;2024-03-08T06:20:12;0.30;;;0.30;;
20173;SDS011;10246;50.620;7.232;2024-03-08T06:22:41;0.30;;;0.30;;
20173;SDS011;10246;50.620;7.232;2024-03-08T06:25:09;0.20;;;0.20;;
20173;SDS011;10246;50.620;7.232;2024-03-08T06:27:39;0.30;;;0.30;;
20173;SDS011;10246;50.620;7.232;2024-03-08T06:30:07;0.30;;;0.30;;
20173;SDS011;10246;50.620;7.232;2024-03-08T06:32:35;0.30;;;0.30;;
20173;SDS011;10246;50.620;7.232;2024-03-08T06:35:02;0.30;;;0.30;;
20173;SDS011;10246;50.620;7.232;2024-03-08T06:37:31;0.40;;;0.40;;
20173;SDS011;10246;50.620;7.232;2024-03-08T06:39:59;0.30;;;0.30;;
20173;SDS011;10246;50.620;7.232;2024-03-08T06:42:28;0.40;;;0.40;;
20173;SDS011;10246;50.620;7.232;2024-03-08T06:44:58;0.30;;;0.30;;
20173;SDS011;10246;50.620;7.232;2024-03-08T06:47:29;0.30;;;0.30;;
20173;SDS011;10246;50.620;7.232;2024-03-08T06:49:56;0.23;;;0.23;;
20173;SDS011;10246;50.620;7.232;2024-03-08T06:52:23;0.30;;;0.30;;
20173;SDS011;10246;50.620;7.232;2024-03-08T06:54:50;0.20;;;0.20;;
20173;SDS011;10246;50.620;7.232;2024-03-08T06:57:18;0.30;;;0.30;;
20173;SDS011;10246;50.620;7.232;2024-03-08T06:59:47;0.30;;;0.30;;
20173;SDS011;10246;50.620;7.232;2024-03-08T07:02:13;0.20;;;0.20;;
20173;SDS011;10246;50.620;7.232;2024-03-08T07:04:40;0.20;;;0.20;;
20173;SDS011;10246;50.620;7.232;2024-03-08T07:07:07;0.30;;;0.30;;
20173;SDS011;10246;50.620;7.232;2024-03-08T07:09:34;0.37;;;0.37;;
20173;SDS011;10246;50.620;7.232;2024-03-08T07:12:01;0.30;;;0.30;;
20173;SDS011;10246;50.620;7.232;2024-03-08T07:14:30;0.20;;;0.20;;
20173;SDS011;10246;50.620;7.232;2024-03-08T07:16:57;0.30;;;0.30;;
20173;SDS011;10246;50.620;7.232;2024-03-08T07:19:23;0.20;;;0.20;;
20173;SDS011;10246;50.620;7.232;2024-03-08T07:21:50;0.30;;;0.30;;
20173;SDS011;10246;50.620;7.232;2024-03-08T07:24:17;0.30;;;0.30;;
20173;SDS011;10246;50.620;7.232;2024-03-08T07:27:03;0.27;;;0.27;;
20173;SDS011;10246;50.620;7.232;2024-03-08T07:29:32;0.20;;;0.20;;
20173;SDS011;10246;50.620;7.232;2024-03-08T07:31:59;0.30;;;0.30;;
20173;SDS011;10246;50.620;7.232;2024-03-08T07:34:37;0.20;;;0.20;;
20173;SDS011;10246;50.620;7.232;2024-03-08T07:37:05;0.30;;;0.30;;
20173;SDS011;10246;50.620;7.232;2024-03-08T07:39:36;0.20;;;0.20;;
20173;SDS011;10246;50.620;7.232;2024-03-08T07:42:03;0.30;;;0.30;;
20173;SDS011;10246;50.620;7.232;2024-03-08T07:44:30;0.20;;;0.20;;
20173;SDS011;10246;50.620;7.232;2024-03-08T07:46:58;0.27;;;0.27;;
20173;SDS011;10246;50.620;7.232;2024-03-08T07:49:25;0.30;;;0.30;;
20173;SDS011;10246;50.620;7.232;2024-03-08T07:51:52;0.30;;;0.30;;
20173;SDS011;10246;50.620;7.232;2024-03-08T07:54:18;0.23;;;0.23;;
20173;SDS011;10246;50.620;7.232;2024-03-08T07:56:45;0.20;;;0.20;;
20173;SDS011;10246;50.620;7.232;2024-03-08T07:59:12;0.20;;;0.20;;
20173;SDS011;10246;50.620;7.232;2024-03-08T08:01:39;0.20;;;0.20;;
20173;SDS011;10246;50.620;7.232;2024-03-08T08:04:08;0.20;;;0.20;;
20173;SDS011;10246;50.620;7.232;2024-03-08T08:06:37;0.20;;;0.20;;
20173;SDS011;10246;50.620;7.232;2024-03-08T08:09:05;0.20;;;0.20;;
20173;SDS011;10246;50.620;7.232;2024-03-08T08:11:35;0.20;;;0.20;;
20173;SDS011;10246;50.620;7.232;2024-03-08T08:14:01;0.20;;;0.20;;
20173;SDS011;10246;50.620;7.232;2024-03-08T08:16:28;0.20;;;0.20;;
20173;SDS011;10246;50.620;7.232;2024-03-08T08:18:55;0.20;;;0.20;;
20173;SDS011;10246;50.620;7.232;2024-03-08T08:21:23;0.20;;;0.20;;
20173;SDS011;10246;50.620;7.232;2024-03-08T08:23:51;0.20;;;0.20;;
20173;SDS011;10246;50.620;7.232;2024-03-08T08:26:17;0.20;;;0.20;;
20173;SDS011;10246;50.620;7.232;2024-03-08T08:28:46;0.20;;;0.20;;
20173;SDS011;10246;50.620;7.232;2024-03-08T08:31:13;0.20;;;0.20;;
20173;SDS011;10246;50.620;7.232;2024-03-08T08:33:39;0.20;;;0.20;;
20173;SDS011;10246;50.620;7.232;2024-03-08T08:36:06;0.20;;;0.20;;
20173;SDS011;10246;50.620;7.232;2024-03-08T08:38:34;0.20;;;0.20;;
20173;SDS011;10246;50.620;7.232;2024-03-08T08:41:01;0.20;;;0.20;;
20173;SDS011;10246;50.620;7.232;2024-03-08T08:43:28;0.20;;;0.20;;
20173;SDS011;10246;50.620;7.232;2024-03-08T08:45:55;0.20;;;0.20;;
20173;SDS011;10246;50.620;7.232;2024-03-08T08:48:22;0.20;;;0.20;;
20173;SDS011;10246;50.620;7.232;2024-03-08T08:50:50;0.20;;;0.20;;
20173;SDS011;10246;50.620;7.232;2024-03-08T08:53:17;0.20;;;0.20;;
20173;SDS011;10246;50.620;7.232;2024-03-08T08:55:45;0.20;;;0.20;;
20173;SDS011;10246;50.620;7.232;2024-03-08T08:58:12;0.13;;;0.13;;
20173;SDS011;10246;50.620;7.232;2024-03-08T09:00:39;0.20;;;0.20;;
20173;SDS011;10246;50.620;7.232;2024-03-08T09:03:09;0.20;;;0.20;;
20173;SDS011;10246;50.620;7.232;2024-03-08T09:05:37;0.10;;;0.10;;
20173;SDS011;10246;50.620;7.232;2024-03-08T09:08:04;0.20;;;0.20;;
20173;SDS011;10246;50.620;7.232;2024-03-08T09:10:31;0.10;;;0.10;;
20173;SDS011;10246;50.620;7.232;2024-03-08T09:13:00;0.10;;;0.10;;
20173;SDS011;10246;50.620;7.232;2024-03-08T09:15:29;0.10;;;0.10;;
20173;SDS011;10246;50.620;7.232;2024-03-08T09:17:56;0.10;;;0.10;;
20173;SDS011;10246;50.620;7.232;2024-03-08T09:20:24;0.10;;;0.10;;
20173;SDS011;10246;50.620;7.232;2024-03-08T09:22:50;0.10;;;0.10;;
20173;SDS011;10246;50.620;7.232;2024-03-08T09:25:17;0.10;;;0.10;;
20173;SDS011;10246;50.620;7.232;2024-03-08T09:27:44;0.10;;;0.10;;
20173;SDS011;10246;50.620;7.232;2024-03-08T09:30:13;0.20;;;0.20;;
20173;SDS011;10246;50.620;7.232;2024-03-08T09:32:40;0.10;;;0.10;;
20173;SDS011;10246;50.620;7.232;2024-03-08T09:35:08;0.10;;;0.10;;
20173;SDS011;10246;50.620;7.232;2024-03-08T09:37:36;0.13;;;0.13;;
20173;SDS011;10246;50.620;7.232;2024-03-08T09:40:03;0.10;;;0.10;;
20173;SDS011;10246;50.620;7.232;2024-03-08T09:42:34;0.10;;;0.10;;
20173;SDS011;10246;50.620;7.232;2024-03-08T09:45:02;0.10;;;0.10;;
20173;SDS011;10246;50.620;7.232;2024-03-08T09:47:34;0.10;;;0.10;;
20173;SDS011;10246;50.620;7.232;2024-03-08T09:50:04;0.10;;;0.10;;
20173;SDS011;10246;50.620;7.232;2024-03-08T09:52:34;0.10;;;0.10;;
20173;SDS011;10246;50.620;7.232;2024-03-08T09:55:02;0.10;;;0.10;;
20173;SDS011;10246;50.620;7.232;2024-03-08T09:57:31;0.10;;;0.10;;
20173;SDS011;10246;50.620;7.232;2024-03-08T09:59:59;0.10;;;0.10;;
20173;SDS011;10246;50.620;7.232;2024-03-08T10:02:26;0.10;;;0.10;;
20173;SDS011;10246;50.620;7.232;2024-03-08T10:04:54;0.10;;;0.10;;
20173;SDS011;10246;50.620;7.232;2024-03-08T10:07:23;0.10;;;0.10;;
20173;SDS011;10246;50.620;7.232;2024-03-08T10:09:51;0.10;;;0.10;;
20173;SDS011;10246;50.620;7.232;2024-03-08T10:12:18;0.10;;;0.10;;
20173;SDS011;10246;50.620;7.232;2024-03-08T10:14:46;0.10;;;0.10;;
20173;SDS011;10246;50.620;7.232;2024-03-08T10:17:13;0.10;;;0.10;;
20173;SDS011;10246;50.620;7.232;2024-03-08T10:19:41;0.10;;;0.10;;
20173;SDS011;10246;50.620;7.232;2024-03-08T10:22:17;0.10;;;0.10;;
20173;SDS011;10246;50.620;7.232;2024-03-08T10:24:44;0.10;;;0.10;;
20173;SDS011;10246;50.620;7.232;2024-03-08T10:27:11;0.10;;;0.10;;
20173;SDS011;10246;50.620;7.232;2024-03-08T10:29:38;0.10;;;0.10;;
20173;SDS011;10246;50.620;7.232;2024-03-08T10:32:09;0.10;;;0.10;;
20173;SDS011;10246;50.620;7.232;2024-03-08T10:34:37;0.10;;;0.10;;
20173;SDS011;10246;50.620;7.232;2024-03-08T10:37:03;0.10;;;0.10;;
20173;SDS011;10246;50.620;7.232;2024-03-08T10:39:34;0.10;;;0.10;;
20173;SDS011;10246;50.620;7.232;2024-03-08T10:42:02;0.10;;;0.10;;
20173;SDS011;10246;50.620;7.232;2024-03-08T10:44:39;0.10;;;0.10;;
20173;SDS011;10246;50.620;7.232;2024-03-08T10:47:15;0.10;;;0.10;;
20173;SDS011;10246;50.620;7.232;2024-03-08T10:49:48;0.10;;;0.10;;
20173;SDS011;10246;50.620;7.232;2024-03-08T10:52:18;0.10;;;0.10;;
20173;SDS011;10246;50.620;7.232;2024-03-08T10:54:47;0.10;;;0.10;;
20173;SDS011;10246;50.620;7.232;2024-03-08T10:57:14;0.10;;;0.10;;
20173;SDS011;10246;50.620;7.232;2024-03-08T10:59:43;0.10;;;0.10;;
20173;SDS011;10246;50.620;7.232;2024-03-08T11:02:11;0.10;;;0.10;;
20173;SDS011;10246;50.620;7.232;2024-03-08T11:04:38;0.10;;;0.10;;
20173;SDS011;10246;50.620;7.232;2024-03-08T11:07:05;0.10;;;0.10;;
20173;SDS011;10246;50.620;7.232;2024-03-08T11:09:32;0.10;;;0.10;;
20173;SDS011;10246;50.620;7.232;2024-03-08T11:12:22;0.10;;;0.10;;
20173;SDS011;10246;50.620;7.232;2024-03-08T11:14:54;0.10;;;0.10;;
20173;SDS011;10246;50.620;7.232;2024-03-08T11:17:25;0.10;;;0.10;;
20173;SDS011;10246;50.620;7.232;2024-03-08T11:20:10;0.10;;;0.10;;
20173;SDS011;10246;50.620;7.232;2024-03-08T11:22:41;0.10;;;0.10;;
20173;SDS011;10246;50.620;7.232;2024-03-08T11:28:15;0.10;;;0.10;;
20173;SDS011;10246;50.620;7.232;2024-03-08T11:30:44;0.10;;;0.10;;
20173;SDS011;10246;50.620;7.232;2024-03-08T11:33:13;0.10;;;0.10;;
20173;SDS011;10246;50.620;7.232;2024-03-08T11:35:41;0.10;;;0.10;;
20173;SDS011;10246;50.620;7.232;2024-03-08T11:38:10;0.10;;;0.10;;
20173;SDS011;10246;50.620;7.232;2024-03-08T11:40:38;0.10;;;0.10;;
20173;SDS011;10246;50.620;7.232;2024-03-08T11:43:07;0.10;;;0.10;;
20173;SDS011;10246;50.620;7.232;2024-03-08T11:45:35;0.10;;;0.10;;
20173;SDS011;10246;50.620;7.232;2024-03-08T11:48:02;0.10;;;0.10;;
20173;SDS011;10246;50.620;7.232;2024-03-08T11:50:30;0.10;;;0.10;;
20173;SDS011;10246;50.620;7.232;2024-03-08T11:53:00;0.10;;;0.10;;
20173;SDS011;10246;50.620;7.232;2024-03-08T11:55:28;0.10;;;0.10;;
20173;SDS011;10246;50.620;7.232;2024-03-08T11:57:59;0.10;;;0.10;;
20173;SDS011;10246;50.620;7.232;2024-03-08T12:00:27;0.10;;;0.10;;
20173;SDS011;10246;50.620;7.232;2024-03-08T12:03:05;0.10;;;0.10;;
20173;SDS011;10246;50.620;7.232;2024-03-08T12:05:32;0.10;;;0.10;;
20173;SDS011;10246;50.620;7.232;2024-03-08T12:07:59;0.10;;;0.10;;
20173;SDS011;10246;50.620;7.232;2024-03-08T12:10:27;0.10;;;0.10;;
20173;SDS011;10246;50.620;7.232;2024-03-08T12:12:54;0.10;;;0.10;;
20173;SDS011;10246;50.620;7.232;2024-03-08T12:15:24;0.10;;;0.10;;
20173;SDS011;10246;50.620;7.232;2024-03-08T12:17:53;0.10;;;0.10;;
20173;SDS011;10246;50.620;7.232;2024-03-08T12:20:22;0.10;;;0.10;;
20173;SDS011;10246;50.620;7.232;2024-03-08T12:22:50;0.10;;;0.10;;
20173;SDS011;10246;50.620;7.232;2024-03-08T12:25:18;0.10;;;0.10;;
20173;SDS011;10246;50.620;7.232;2024-03-08T12:27:46;0.10;;;0.10;;
20173;SDS011;10246;50.620;7.232;2024-03-08T12:30:17;0.10;;;0.10;;
20173;SDS011;10246;50.620;7.232;2024-03-08T12:32:47;0.10;;;0.10;;
20173;SDS011;10246;50.620;7.232;2024-03-08T12:35:23;0.10;;;0.10;;
20173;SDS011;10246;50.620;7.232;2024-03-08T12:37:52;0.10;;;0.10;;
20173;SDS011;10246;50.620;7.232;2024-03-08T12:40:19;0.10;;;0.10;;
20173;SDS011;10246;50.620;7.232;2024-03-08T12:42:53;0.10;;;0.10;;
20173;SDS011;10246;50.620;7.232;2024-03-08T12:45:20;0.10;;;0.10;;
20173;SDS011;10246;50.620;7.232;2024-03-08T12:47:49;0.10;;;0.10;;
20173;SDS011;10246;50.620;7.232;2024-03-08T12:50:18;0.10;;;0.10;;
20173;SDS011;10246;50.620;7.232;2024-03-08T12:52:54;0.10;;;0.10;;
20173;SDS011;10246;50.620;7.232;2024-03-08T12:55:22;0.00;;;0.00;;
20173;SDS011;10246;50.620;7.232;2024-03-08T12:57:48;0.10;;;0.10;;
20173;SDS011;10246;50.620;7.232;2024-03-08T13:00:18;0.10;;;0.10;;
20173;SDS011;10246;50.620;7.232;2024-03-08T13:02:45;0.00;;;0.00;;
20173;SDS011;10246;50.620;7.232;2024-03-08T13:05:11;0.10;;;0.10;;
20173;SDS011;10246;50.620;7.232;2024-03-08T13:07:39;0.00;;;0.00;;
20173;SDS011;10246;50.620;7.232;2024-03-08T13:10:12;0.10;;;0.10;;
20173;SDS011;10246;50.620;7.232;2024-03-08T13:12:40;0.00;;;0.00;;
20173;SDS011;10246;50.620;7.232;2024-03-08T13:15:07;0.10;;;0.10;;
20173;SDS011;10246;50.620;7.232;2024-03-08T13:17:36;0.00;;;0.00;;
20173;SDS011;10246;50.620;7.232;2024-03-08T13:20:05;0.10;;;0.10;;
20173;SDS011;10246;50.620;7.232;2024-03-08T13:22:33;0.00;;;0.00;;
20173;SDS011;10246;50.620;7.232;2024-03-08T13:25:00;0.10;;;0.10;;
20173;SDS011;10246;50.620;7.232;2024-03-08T13:27:28;0.10;;;0.10;;
20173;SDS011;10246;50.620;7.232;2024-03-08T13:29:55;0.10;;;0.10;;
20173;SDS011;10246;50.620;7.232;2024-03-08T13:32:22;0.00;;;0.00;;
20173;SDS011;10246;50.620;7.232;2024-03-08T13:34:50;0.10;;;0.10;;
20173;SDS011;10246;50.620;7.232;2024-03-08T13:37:17;0.00;;;0.00;;
20173;SDS011;10246;50.620;7.232;2024-03-08T13:39:44;0.10;;;0.10;;
20173;SDS011;10246;50.620;7.232;2024-03-08T13:42:11;0.00;;;0.00;;
20173;SDS011;10246;50.620;7.232;2024-03-08T13:44:44;0.10;;;0.10;;
20173;SDS011;10246;50.620;7.232;2024-03-08T13:47:12;0.00;;;0.00;;
20173;SDS011;10246;50.620;7.232;2024-03-08T13:49:39;0.10;;;0.10;;
20173;SDS011;10246;50.620;7.232;2024-03-08T13:52:06;0.00;;;0.00;;
20173;SDS011;10246;50.620;7.232;2024-03-08T13:54:34;0.00;;;0.00;;
20173;SDS011;10246;50.620;7.232;2024-03-08T13:57:00;0.00;;;0.00;;
20173;SDS011;10246;50.620;7.232;2024-03-08T13:59:28;0.00;;;0.00;;
20173;SDS011;10246;50.620;7.232;2024-03-08T14:01:59;0.00;;;0.00;;
20173;SDS011;10246;50.620;7.232;2024-03-08T14:04:26;0.00;;;0.00;;
20173;SDS011;10246;50.620;7.232;2024-03-08T14:06:53;0.10;;;0.10;;
20173;SDS011;10246;50.620;7.232;2024-03-08T14:09:22;0.00;;;0.00;;
20173;SDS011;10246;50.620;7.232;2024-03-08T14:11:49;0.00;;;0.00;;
20173;SDS011;10246;50.620;7.232;2024-03-08T14:14:18;0.00;;;0.00;;
20173;SDS011;10246;50.620;7.232;2024-03-08T14:16:45;0.10;;;0.10;;
20173;SDS011;10246;50.620;7.232;2024-03-08T14:19:14;0.00;;;0.00;;
20173;SDS011;10246;50.620;7.232;2024-03-08T14:21:41;0.10;;;0.10;;
20173;SDS011;10246;50.620;7.232;2024-03-08T14:24:08;0.10;;;0.10;;
20173;SDS011;10246;50.620;7.232;2024-03-08T14:26:35;0.00;;;0.00;;
20173;SDS011;10246;50.620;7.232;2024-03-08T14:29:03;0.10;;;0.10;;
20173;SDS011;10246;50.620;7.232;2024-03-08T14:31:30;0.10;;;0.10;;
20173;SDS011;10246;50.620;7.232;2024-03-08T14:33:57;0.00;;;0.00;;
20173;SDS011;10246;50.620;7.232;2024-03-08T14:36:25;0.10;;;0.10;;
20173;SDS011;10246;50.620;7.232;2024-03-08T14:38:52;0.00;;;0.00;;
20173;SDS011;10246;50.620;7.232;2024-03-08T14:41:20;0.00;;;0.00;;
20173;SDS011;10246;50.620;7.232;2024-03-08T14:43:48;0.00;;;0.00;;
20173;SDS011;10246;50.620;7.232;2024-03-08T14:46:14;0.03;;;0.03;;
20173;SDS011;10246;50.620;7.232;2024-03-08T14:48:43;0.10;;;0.10;;
20173;SDS011;10246;50.620;7.232;2024-03-08T14:51:10;0.10;;;0.10;;
20173;SDS011;10246;50.620;7.232;2024-03-08T14:53:41;0.00;;;0.00;;
20173;SDS011;10246;50.620;7.232;2024-03-08T14:56:10;0.10;;;0.10;;